GMME/RBA METAR and TAF weather

Enter ICAO airport designator
Station Type Date Time Source
GMME METAR 2019/02/23 23:00 UTC NOAA

GMME 232300Z VRB02KT 5000 FEW007 10/09 Q1026 NOSIG


Station Type Date Time Source
GMME Decoded METAR 2019/02/23 23:00 UTC NOAA

Rabat-Sale, Morocco (GMME) 34-03N 006-46W 75M
Feb 23, 2019 - 06:00 PM EST / 2019.02.23 2300 UTC
Wind: Variable at 2 MPH (2 KT):0
Visibility: 3 mile(s):0
Sky conditions: mostly clear
Temperature: 50 F (10 C)
Dew Point: 48 F (9 C)
Relative Humidity: 93%
Pressure (altimeter): 30.30 in. Hg (1026 hPa)
ob: GMME 232300Z VRB02KT 5000 FEW007 10/09 Q1026 NOSIG
cycle: 23

Station Type Date Time Source
GMME TAF 2019/02/23 18:18 UTC NOAA

TAF GMME 231700Z 2318/2424 08008KT 6000 NSC
BECMG 2402/2406 14004KT SCT013
BECMG 2408/2412 36010KT CAVOK


Example: see airport list